createdAt,value
2023-11-18T00:02:06.160Z,5.38
2023-11-18T00:04:32.604Z,6.63
2023-11-18T00:07:00.598Z,7.50
2023-11-18T00:09:27.032Z,8.38
2023-11-18T00:11:53.594Z,14.80
2023-11-18T00:14:21.836Z,16.08
2023-11-18T00:16:50.906Z,10.27
2023-11-18T00:19:18.421Z,7.75
2023-11-18T00:21:45.209Z,11.63
2023-11-18T00:24:11.669Z,6.65
2023-11-18T00:26:38.150Z,7.35
2023-11-18T00:29:05.104Z,11.68
2023-11-18T00:31:33.847Z,14.13
2023-11-18T00:34:00.448Z,14.70
2023-11-18T00:36:27.626Z,18.63
2023-11-18T00:38:54.440Z,12.57
2023-11-18T00:41:20.834Z,17.83
2023-11-18T00:43:47.283Z,14.05
2023-11-18T00:46:13.906Z,18.38
2023-11-18T00:48:40.401Z,15.13
2023-11-18T00:51:07.540Z,10.65
2023-11-18T00:53:36.286Z,15.57
2023-11-18T00:56:03.078Z,19.98
2023-11-18T00:58:30.159Z,24.90
2023-11-18T01:01:01.724Z,13.93
2023-11-18T01:03:29.045Z,14.37
2023-11-18T01:05:55.529Z,17.02
2023-11-18T01:08:24.303Z,18.75
2023-11-18T01:10:50.709Z,19.08
2023-11-18T01:13:17.190Z,13.23
2023-11-18T01:15:43.634Z,11.02
2023-11-18T01:18:10.155Z,9.65
2023-11-18T01:20:36.621Z,19.33
2023-11-18T01:23:03.142Z,19.00
2023-11-18T01:25:30.574Z,8.68
2023-11-18T01:27:59.360Z,11.90
2023-11-18T01:30:27.822Z,11.45
2023-11-18T01:32:54.409Z,7.47
2023-11-18T01:35:20.898Z,8.20
2023-11-18T01:37:49.231Z,10.45
2023-11-18T01:40:16.615Z,10.43
2023-11-18T01:42:44.539Z,16.02
2023-11-18T01:45:13.434Z,16.67
2023-11-18T01:47:45.012Z,16.17
2023-11-18T01:50:13.843Z,15.20
2023-11-18T01:52:43.369Z,18.90
2023-11-18T01:55:11.622Z,15.68
2023-11-18T01:57:38.325Z,14.43
2023-11-18T02:00:07.389Z,14.63
2023-11-18T02:02:34.273Z,11.20
2023-11-18T02:05:02.976Z,13.32
2023-11-18T02:07:30.383Z,20.30
2023-11-18T02:09:57.071Z,20.80
2023-11-18T02:12:57.670Z,14.50
2023-11-18T02:15:26.177Z,10.68
2023-11-18T02:17:54.744Z,16.70
2023-11-18T02:20:25.014Z,18.77
2023-11-18T02:22:54.860Z,16.20
2023-11-18T02:25:25.188Z,16.27
2023-11-18T02:27:54.549Z,12.63
2023-11-18T02:30:21.822Z,14.98
2023-11-18T02:33:15.592Z,24.40
2023-11-18T02:35:53.920Z,15.75
2023-11-18T02:38:29.002Z,17.58
2023-11-18T02:40:58.304Z,11.82
2023-11-18T02:43:29.802Z,13.05
2023-11-18T02:45:58.841Z,17.33
2023-11-18T02:48:29.331Z,10.93
2023-11-18T02:50:55.790Z,18.98
2023-11-18T02:53:25.645Z,13.05
2023-11-18T02:55:55.053Z,13.43
2023-11-18T02:58:22.086Z,12.63
2023-11-18T03:00:48.988Z,10.52
2023-11-18T03:03:16.437Z,12.65
2023-11-18T03:05:42.854Z,11.93
2023-11-18T03:08:12.694Z,15.20
2023-11-18T03:10:45.447Z,14.95
2023-11-18T03:13:13.276Z,10.48
2023-11-18T03:15:42.012Z,14.30
2023-11-18T03:18:10.524Z,13.82
2023-11-18T03:20:37.077Z,10.40
2023-11-18T03:23:03.574Z,15.30
2023-11-18T03:25:32.473Z,11.48
2023-11-18T03:27:59.182Z,13.32
2023-11-18T03:30:30.067Z,11.20
2023-11-18T03:32:56.644Z,13.68
2023-11-18T03:35:25.150Z,14.48
2023-11-18T03:37:52.872Z,14.20
2023-11-18T03:40:19.329Z,15.90
2023-11-18T03:42:50.916Z,16.48
2023-11-18T03:45:18.891Z,9.73
2023-11-18T03:47:46.335Z,13.75
2023-11-18T03:50:14.426Z,13.50
2023-11-18T03:52:41.279Z,15.00
2023-11-18T03:55:09.259Z,14.07
2023-11-18T03:57:35.773Z,17.85
2023-11-18T04:00:02.228Z,21.55
2023-11-18T04:02:30.373Z,12.68
2023-11-18T04:04:56.958Z,17.20
2023-11-18T04:07:23.363Z,13.27
2023-11-18T04:09:54.986Z,16.02
2023-11-18T04:12:21.388Z,13.05
2023-11-18T04:14:47.811Z,17.65
2023-11-18T04:17:14.289Z,24.05
2023-11-18T04:19:46.653Z,18.08
2023-11-18T04:24:46.267Z,19.38
2023-11-18T04:27:12.682Z,15.32
2023-11-18T04:29:39.301Z,18.40
2023-11-18T04:32:06.073Z,22.50
2023-11-18T04:34:36.675Z,29.52
2023-11-18T04:37:07.111Z,19.77
2023-11-18T04:39:33.946Z,24.45
2023-11-18T04:42:02.223Z,24.65
2023-11-18T04:44:28.703Z,34.22
2023-11-18T04:46:55.178Z,19.83
2023-11-18T04:49:21.746Z,22.23
2023-11-18T04:51:48.267Z,50.35
2023-11-18T04:54:20.459Z,60.95
2023-11-18T04:56:47.200Z,68.43
2023-11-18T04:59:13.704Z,55.22
2023-11-18T05:01:44.984Z,149.32
2023-11-18T05:04:17.068Z,59.13
2023-11-18T05:06:43.456Z,32.28
2023-11-18T05:09:10.015Z,62.53
2023-11-18T05:11:39.913Z,77.32
2023-11-18T05:14:12.337Z,98.65
2023-11-18T05:16:40.234Z,77.15
2023-11-18T05:19:08.592Z,80.38
2023-11-18T05:21:35.283Z,79.20
2023-11-18T05:24:01.720Z,68.75
2023-11-18T05:26:28.228Z,85.40
2023-11-18T05:28:55.837Z,73.10
2023-11-18T05:31:27.053Z,72.43
2023-11-18T05:33:59.013Z,75.68
2023-11-18T05:36:38.055Z,84.32
2023-11-18T05:39:06.120Z,91.10
2023-11-18T05:41:33.206Z,104.68
2023-11-18T05:43:59.832Z,88.05
2023-11-18T05:46:27.262Z,99.72
2023-11-18T05:48:54.291Z,77.90
2023-11-18T05:51:28.052Z,76.40
2023-11-18T05:53:54.707Z,83.13
2023-11-18T05:56:23.964Z,95.20
2023-11-18T05:58:55.876Z,71.32
2023-11-18T06:01:23.189Z,91.77
2023-11-18T06:03:52.480Z,91.95
2023-11-18T06:06:22.484Z,68.50
2023-11-18T06:08:54.444Z,81.55
2023-11-18T06:11:21.548Z,68.65
2023-11-18T06:13:51.724Z,67.07
2023-11-18T06:16:25.688Z,92.22
2023-11-18T06:18:54.408Z,83.20
2023-11-18T06:21:25.456Z,75.70
2023-11-18T06:23:56.707Z,83.68
2023-11-18T06:26:29.656Z,71.15
2023-11-18T06:28:57.383Z,71.72
2023-11-18T06:31:25.183Z,75.22
2023-11-18T06:33:52.152Z,81.07
2023-11-18T06:36:19.694Z,56.15
2023-11-18T06:38:47.282Z,65.13
2023-11-18T06:41:17.967Z,51.92
2023-11-18T06:43:55.248Z,64.05
2023-11-18T06:46:23.251Z,58.45
2023-11-18T06:48:55.398Z,43.78
2023-11-18T06:51:25.693Z,50.70
2023-11-18T06:53:52.960Z,44.60
2023-11-18T06:56:24.135Z,40.45
2023-11-18T06:58:50.910Z,52.15
2023-11-18T07:01:18.382Z,43.22
2023-11-18T07:03:55.106Z,32.97
2023-11-18T07:06:23.661Z,29.17
2023-11-18T07:08:50.933Z,45.67
2023-11-18T07:11:20.365Z,29.20
2023-11-18T07:13:50.189Z,44.53
2023-11-18T07:16:20.068Z,34.78
2023-11-18T07:18:46.852Z,55.08
2023-11-18T07:21:15.321Z,44.25
2023-11-18T07:23:43.446Z,35.53
2023-11-18T07:26:11.122Z,35.00
2023-11-18T07:28:37.849Z,37.08
2023-11-18T07:31:06.028Z,42.25
2023-11-18T07:33:33.606Z,35.92
2023-11-18T07:36:00.312Z,39.15
2023-11-18T07:38:28.326Z,30.65
2023-11-18T07:40:57.764Z,30.45
2023-11-18T07:43:24.609Z,37.70
2023-11-18T07:45:53.493Z,34.22
2023-11-18T07:48:21.724Z,39.03
2023-11-18T07:50:48.563Z,40.78
2023-11-18T07:53:17.776Z,32.20
2023-11-18T07:55:45.755Z,40.88
2023-11-18T07:58:14.565Z,27.25
2023-11-18T08:00:43.517Z,29.55
2023-11-18T08:03:15.922Z,26.77
2023-11-18T08:05:47.220Z,27.30
2023-11-18T08:08:18.063Z,26.40
2023-11-18T08:10:45.437Z,29.38
2023-11-18T08:13:19.959Z,37.25
2023-11-18T08:15:46.579Z,31.70
2023-11-18T08:18:13.528Z,30.25
2023-11-18T08:20:44.613Z,37.63
2023-11-18T08:23:13.653Z,30.75
2023-11-18T08:25:41.222Z,26.40
2023-11-18T08:28:09.335Z,41.97
2023-11-18T08:30:38.354Z,36.15
2023-11-18T08:33:10.218Z,33.47
2023-11-18T08:35:37.444Z,33.83
2023-11-18T08:38:05.308Z,26.38
2023-11-18T08:40:35.506Z,22.65
2023-11-18T08:43:06.485Z,30.85
2023-11-18T08:45:38.570Z,22.38
2023-11-18T08:48:09.691Z,29.08
2023-11-18T08:50:37.998Z,26.03
2023-11-18T08:53:10.556Z,25.60
2023-11-18T08:55:40.651Z,29.02
2023-11-18T08:58:19.772Z,39.08
2023-11-18T09:00:55.789Z,35.95
2023-11-18T09:03:35.406Z,20.38
2023-11-18T09:06:18.962Z,26.48
2023-11-18T09:08:54.463Z,29.10
2023-11-18T09:11:28.110Z,28.52
2023-11-18T09:14:01.654Z,34.05
2023-11-18T09:16:32.196Z,23.10
2023-11-18T09:19:03.743Z,24.38
2023-11-18T09:21:31.193Z,26.73
2023-11-18T09:23:58.053Z,29.00
2023-11-18T09:26:31.268Z,24.95
2023-11-18T09:28:59.224Z,22.30
2023-11-18T09:31:25.804Z,29.20
2023-11-18T09:33:55.263Z,28.98
2023-11-18T09:36:23.535Z,28.95
2023-11-18T09:38:53.639Z,33.55
2023-11-18T09:41:25.412Z,30.05
2023-11-18T09:43:55.530Z,27.30
2023-11-18T09:46:29.949Z,26.33
2023-11-18T09:49:16.396Z,20.35
2023-11-18T09:51:48.041Z,21.67
2023-11-18T09:54:26.262Z,22.27
2023-11-18T09:57:00.841Z,15.88
2023-11-18T09:59:44.351Z,21.73
2023-11-18T10:02:11.968Z,17.20
2023-11-18T10:04:40.381Z,16.55
2023-11-18T10:07:12.493Z,16.83
2023-11-18T10:12:13.305Z,15.73
2023-11-18T10:14:45.069Z,16.85
2023-11-18T10:17:15.914Z,14.60
2023-11-18T10:19:52.296Z,15.93
2023-11-18T10:22:29.351Z,12.27
2023-11-18T10:24:59.181Z,14.90
2023-11-18T10:27:27.006Z,15.00
2023-11-18T10:30:03.981Z,14.70
2023-11-18T10:32:37.153Z,11.32
2023-11-18T10:35:06.456Z,16.63
2023-11-18T10:37:33.261Z,12.40
2023-11-18T10:40:05.358Z,10.77
2023-11-18T10:45:04.819Z,8.20
2023-11-18T10:47:40.944Z,8.38
2023-11-18T10:50:11.098Z,7.30
2023-11-18T10:52:38.681Z,18.50
2023-11-18T10:55:14.339Z,9.32
2023-11-18T10:57:43.224Z,9.88
2023-11-18T11:00:20.278Z,9.25
2023-11-18T11:02:52.984Z,7.75
2023-11-18T11:05:42.778Z,9.05
2023-11-18T11:08:09.821Z,8.73
2023-11-18T11:10:37.081Z,11.00
2023-11-18T11:13:03.955Z,9.40
2023-11-18T11:15:39.812Z,8.45
2023-11-18T11:18:16.881Z,7.72
2023-11-18T11:20:52.216Z,10.93
2023-11-18T11:23:45.271Z,14.52
2023-11-18T11:26:29.215Z,10.10
2023-11-18T11:29:07.445Z,9.18
2023-11-18T11:31:40.179Z,8.15
2023-11-18T11:34:24.883Z,7.30
2023-11-18T11:36:53.841Z,8.10
2023-11-18T11:39:27.173Z,4.00
2023-11-18T11:41:57.412Z,7.15
2023-11-18T11:44:32.212Z,4.70
2023-11-18T11:47:01.915Z,4.57
2023-11-18T11:49:38.178Z,4.95
2023-11-18T11:52:16.106Z,4.68
2023-11-18T11:55:04.056Z,4.22
2023-11-18T11:57:34.054Z,4.47
2023-11-18T12:00:16.260Z,2.72
2023-11-18T12:02:55.727Z,4.38
2023-11-18T12:05:29.149Z,4.32
2023-11-18T12:07:59.519Z,2.63
2023-11-18T12:10:39.375Z,8.27
2023-11-18T12:13:17.077Z,9.00
2023-11-18T12:16:05.177Z,11.57
2023-11-18T12:18:37.747Z,2.53
2023-11-18T12:21:05.282Z,3.60
2023-11-18T12:23:36.012Z,3.53
2023-11-18T12:26:04.340Z,1.55
2023-11-18T12:28:35.765Z,5.57
2023-11-18T12:31:07.631Z,4.97
2023-11-18T12:33:57.703Z,2.58
2023-11-18T12:36:31.133Z,5.72
2023-11-18T12:39:38.957Z,6.43
2023-11-18T12:42:23.944Z,3.88
2023-11-18T12:45:21.899Z,5.28
2023-11-18T12:47:56.181Z,6.20
2023-11-18T12:50:29.643Z,2.35
2023-11-18T12:52:58.514Z,3.72
2023-11-18T12:55:27.482Z,4.63
2023-11-18T12:57:55.259Z,6.47
2023-11-18T13:00:27.906Z,5.60
2023-11-18T13:02:59.486Z,5.40
2023-11-18T13:05:31.294Z,3.17
2023-11-18T13:08:02.798Z,4.60
2023-11-18T13:10:29.436Z,2.85
2023-11-18T13:12:59.198Z,3.05
2023-11-18T13:15:28.542Z,3.55
2023-11-18T13:18:08.350Z,4.85
2023-11-18T13:20:36.923Z,5.40
2023-11-18T13:23:09.794Z,6.28
2023-11-18T13:25:40.519Z,3.58
2023-11-18T13:28:12.134Z,9.25
2023-11-18T13:30:40.950Z,5.80
2023-11-18T13:33:08.652Z,2.42
2023-11-18T13:35:36.559Z,5.50
2023-11-18T13:38:05.793Z,3.50
2023-11-18T13:40:47.876Z,5.20
2023-11-18T13:43:14.932Z,2.28
2023-11-18T13:45:43.393Z,10.07
2023-11-18T13:48:13.381Z,10.68
2023-11-18T13:50:44.704Z,3.42
2023-11-18T13:53:14.165Z,5.13
2023-11-18T13:55:41.362Z,4.13
2023-11-18T13:58:11.582Z,2.80
2023-11-18T14:00:40.724Z,4.70
2023-11-18T14:03:12.935Z,9.23
2023-11-18T14:05:40.127Z,4.47
2023-11-18T14:08:13.461Z,4.95
2023-11-18T14:10:42.440Z,4.97
2023-11-18T14:13:13.906Z,3.33
2023-11-18T14:15:43.549Z,7.25
2023-11-18T14:18:14.096Z,2.65
2023-11-18T14:20:41.234Z,1.75
2023-11-18T14:23:08.400Z,4.15
2023-11-18T14:25:35.136Z,7.40
2023-11-18T14:28:03.626Z,2.55
2023-11-18T14:30:31.411Z,2.15
2023-11-18T14:33:00.140Z,2.35
2023-11-18T14:35:30.130Z,6.38
2023-11-18T14:37:59.619Z,2.65
2023-11-18T14:40:26.104Z,1.63
2023-11-18T14:42:53.256Z,3.83
2023-11-18T14:45:19.851Z,5.18
2023-11-18T14:47:47.126Z,3.40
2023-11-18T14:50:18.952Z,5.90
2023-11-18T14:52:53.105Z,4.60
2023-11-18T14:55:22.097Z,9.60
2023-11-18T14:57:48.868Z,3.95
2023-11-18T15:00:23.879Z,9.35
2023-11-18T15:02:51.740Z,1.95
2023-11-18T15:05:20.162Z,10.68
2023-11-18T15:07:48.922Z,8.20
2023-11-18T15:10:20.805Z,3.78
2023-11-18T15:12:49.384Z,10.57
2023-11-18T15:15:19.590Z,2.75
2023-11-18T15:17:48.505Z,6.55
2023-11-18T15:20:24.143Z,3.28
2023-11-18T15:22:53.126Z,6.63
2023-11-18T15:25:19.905Z,4.05
2023-11-18T15:27:47.137Z,6.85
2023-11-18T15:30:15.278Z,9.55
2023-11-18T15:32:45.291Z,2.97
2023-11-18T15:35:13.847Z,4.80
2023-11-18T15:37:47.011Z,3.25
2023-11-18T15:40:15.430Z,3.38
2023-11-18T15:42:43.635Z,5.40
2023-11-18T15:45:17.808Z,10.52
2023-11-18T15:47:45.249Z,6.10
2023-11-18T15:50:19.804Z,10.13
2023-11-18T15:52:48.965Z,3.78
2023-11-18T15:55:19.102Z,4.43
2023-11-18T15:57:56.299Z,4.35
2023-11-18T16:00:26.047Z,6.20
2023-11-18T16:03:01.826Z,3.00
2023-11-18T16:05:34.331Z,9.02
2023-11-18T16:08:02.546Z,6.75
2023-11-18T16:10:29.064Z,8.85
2023-11-18T16:12:58.660Z,18.00
2023-11-18T16:15:29.769Z,5.05
2023-11-18T16:17:58.641Z,16.60
2023-11-18T16:20:34.612Z,11.52
2023-11-18T16:23:05.530Z,6.40
2023-11-18T16:25:35.215Z,5.97
2023-11-18T16:28:03.461Z,8.25
2023-11-18T16:30:33.833Z,3.42
2023-11-18T16:33:05.251Z,4.95
2023-11-18T16:35:32.138Z,6.93
2023-11-18T16:38:01.142Z,10.77
2023-11-18T16:40:28.497Z,10.30
2023-11-18T16:42:57.004Z,7.70
2023-11-18T16:45:25.720Z,7.20
2023-11-18T16:47:53.955Z,14.13
2023-11-18T16:50:24.699Z,5.90
2023-11-18T16:52:51.945Z,6.55
2023-11-18T16:55:18.671Z,7.53
2023-11-18T16:57:46.816Z,5.80
2023-11-18T17:00:17.256Z,8.48
2023-11-18T17:02:48.635Z,6.32
2023-11-18T17:05:18.015Z,5.13
2023-11-18T17:07:44.522Z,6.82
2023-11-18T17:10:14.083Z,8.63
2023-11-18T17:12:46.022Z,3.88
2023-11-18T17:15:16.758Z,7.40
2023-11-18T17:17:45.219Z,5.85
2023-11-18T17:20:13.655Z,5.15
2023-11-18T17:22:43.216Z,8.55
2023-11-18T17:25:11.651Z,10.23
2023-11-18T17:27:38.214Z,9.07
2023-11-18T17:30:13.080Z,11.02
2023-11-18T17:32:50.779Z,5.90
2023-11-18T17:35:21.467Z,18.40
2023-11-18T17:37:48.324Z,8.57
2023-11-18T17:40:16.312Z,10.30
2023-11-18T17:42:47.082Z,7.07
2023-11-18T17:45:15.397Z,4.47
2023-11-18T17:47:43.843Z,13.35
2023-11-18T17:50:13.570Z,13.02
2023-11-18T17:52:42.449Z,3.25
2023-11-18T17:55:09.858Z,4.55
2023-11-18T17:57:36.747Z,15.88
2023-11-18T18:00:20.876Z,16.25
2023-11-18T18:02:48.472Z,5.50
2023-11-18T18:05:15.419Z,47.40
2023-11-18T18:07:44.694Z,5.93
2023-11-18T18:10:13.446Z,6.25
2023-11-18T18:12:42.312Z,13.32
2023-11-18T18:15:13.429Z,8.00
2023-11-18T18:17:39.944Z,8.13
2023-11-18T18:20:10.940Z,5.95
2023-11-18T18:22:38.594Z,8.75
2023-11-18T18:25:05.752Z,7.30
2023-11-18T18:27:35.195Z,13.95
2023-11-18T18:30:03.693Z,7.25
2023-11-18T18:32:30.585Z,9.00
2023-11-18T18:34:57.366Z,6.20
2023-11-18T18:37:27.301Z,7.47
2023-11-18T18:39:55.285Z,8.63
2023-11-18T18:42:25.323Z,11.00
2023-11-18T18:44:55.510Z,19.58
2023-11-18T18:47:26.979Z,8.77
2023-11-18T18:49:56.377Z,5.65
2023-11-18T18:52:22.854Z,7.20
2023-11-18T18:54:50.053Z,24.33
2023-11-18T18:57:16.842Z,5.97
2023-11-18T18:59:43.962Z,19.02
2023-11-18T19:02:11.062Z,11.30
2023-11-18T19:04:38.326Z,12.32
2023-11-18T19:07:05.090Z,14.85
2023-11-18T19:09:31.640Z,11.63
2023-11-18T19:11:58.198Z,8.80
2023-11-18T19:14:24.658Z,14.38
2023-11-18T19:16:53.450Z,12.02
2023-11-18T19:19:20.535Z,6.35
2023-11-18T19:21:51.893Z,7.00
2023-11-18T19:24:19.923Z,9.83
2023-11-18T19:26:49.332Z,8.70
2023-11-18T19:29:15.980Z,10.20
2023-11-18T19:31:42.637Z,11.20
2023-11-18T19:34:11.667Z,6.22
2023-11-18T19:36:40.785Z,8.90
2023-11-18T19:39:09.427Z,8.98
2023-11-18T19:41:36.444Z,13.45
2023-11-18T19:44:03.065Z,4.55
2023-11-18T19:46:29.924Z,10.40
2023-11-18T19:48:56.579Z,7.35
2023-11-18T19:51:22.980Z,47.55
2023-11-18T19:53:49.414Z,8.88
2023-11-18T19:56:16.273Z,13.13
2023-11-18T19:58:42.890Z,6.10
2023-11-18T20:01:18.088Z,13.32
2023-11-18T20:03:45.537Z,5.40
2023-11-18T20:06:12.446Z,11.20
2023-11-18T20:08:43.625Z,5.00
2023-11-18T20:11:13.182Z,6.68
2023-11-18T20:13:40.686Z,13.43
2023-11-18T20:16:10.216Z,15.32
2023-11-18T20:18:36.827Z,8.43
2023-11-18T20:21:03.920Z,5.75
2023-11-18T20:23:32.997Z,9.30
2023-11-18T20:26:05.762Z,6.32
2023-11-18T20:28:35.227Z,8.60
2023-11-18T20:31:01.735Z,7.47
2023-11-18T20:33:28.203Z,9.00
2023-11-18T20:35:59.507Z,8.45
2023-11-18T20:38:28.166Z,6.03
2023-11-18T20:40:54.629Z,7.72
2023-11-18T20:43:25.957Z,11.38
2023-11-18T20:45:54.840Z,20.77
2023-11-18T20:48:21.404Z,16.13
2023-11-18T20:50:52.615Z,12.45
2023-11-18T20:53:21.385Z,19.13
2023-11-18T20:55:48.357Z,7.60
2023-11-18T20:58:17.375Z,11.50
2023-11-18T21:00:43.925Z,11.73
2023-11-18T21:03:10.738Z,8.73
2023-11-18T21:05:37.519Z,13.23
2023-11-18T21:08:07.768Z,15.15
2023-11-18T21:10:35.232Z,9.45
2023-11-18T21:13:01.953Z,11.05
2023-11-18T21:15:28.367Z,11.52
2023-11-18T21:17:55.034Z,5.25
2023-11-18T21:20:21.677Z,11.43
2023-11-18T21:22:50.161Z,7.05
2023-11-18T21:25:19.954Z,10.75
2023-11-18T21:27:49.059Z,10.07
2023-11-18T21:30:15.721Z,10.88
2023-11-18T21:32:46.541Z,14.10
2023-11-18T21:35:15.392Z,7.95
2023-11-18T21:37:42.104Z,7.72
2023-11-18T21:40:13.382Z,7.55
2023-11-18T21:42:41.018Z,7.15
2023-11-18T21:45:08.189Z,8.70
2023-11-18T21:47:37.190Z,12.93
2023-11-18T21:50:06.614Z,9.70
2023-11-18T21:52:35.694Z,11.35
2023-11-18T21:55:04.772Z,10.35
2023-11-18T21:57:31.286Z,18.10
2023-11-18T21:59:57.700Z,11.02
2023-11-18T22:02:24.485Z,15.38
2023-11-18T22:04:51.277Z,21.33
2023-11-18T22:07:19.978Z,17.02
2023-11-18T22:09:48.130Z,9.73
2023-11-18T22:12:15.170Z,11.25
2023-11-18T22:14:41.797Z,12.45
2023-11-18T22:17:11.076Z,9.05
2023-11-18T22:19:37.513Z,6.63
2023-11-18T22:22:06.304Z,7.68
2023-11-18T22:24:32.777Z,10.57
2023-11-18T22:27:01.615Z,5.20
2023-11-18T22:29:28.949Z,5.43
2023-11-18T22:31:56.318Z,12.93
2023-11-18T22:34:22.790Z,8.73
2023-11-18T22:36:49.434Z,5.82
2023-11-18T22:39:23.942Z,10.63
2023-11-18T22:41:52.928Z,7.47
2023-11-18T22:44:23.654Z,8.27
2023-11-18T22:46:50.511Z,11.18
2023-11-18T22:49:18.015Z,6.88
2023-11-18T22:51:44.455Z,11.52
2023-11-18T22:54:12.143Z,12.75
2023-11-18T22:56:38.704Z,7.72
2023-11-18T22:59:05.575Z,10.10
2023-11-18T23:01:32.128Z,8.27
2023-11-18T23:03:59.277Z,10.93
2023-11-18T23:06:30.258Z,8.35
2023-11-18T23:08:59.113Z,7.35
2023-11-18T23:11:26.524Z,7.50
2023-11-18T23:13:53.414Z,10.60
2023-11-18T23:16:22.025Z,12.50
2023-11-18T23:18:48.638Z,5.50
2023-11-18T23:21:17.659Z,7.15
2023-11-18T23:23:44.097Z,11.20
2023-11-18T23:26:12.705Z,5.68
2023-11-18T23:28:39.219Z,9.45
2023-11-18T23:31:06.080Z,6.82
2023-11-18T23:33:32.830Z,10.68
2023-11-18T23:36:03.778Z,8.27
2023-11-18T23:38:30.973Z,6.35
2023-11-18T23:40:57.425Z,13.32
2023-11-18T23:43:23.962Z,5.53
2023-11-18T23:45:50.509Z,13.70
2023-11-18T23:48:18.299Z,12.13
2023-11-18T23:50:44.928Z,8.25
2023-11-18T23:53:13.857Z,8.60
2023-11-18T23:55:40.341Z,11.80
2023-11-18T23:58:09.258Z,12.07
